sensor_id;sensor_type;location;lat;lon;timestamp;P1;durP1;ratioP1;P2;durP2;ratioP2
15697;SDS011;7949;48.726;9.102;2022-10-18T00:01:05;10.73;;;4.83;;
15697;SDS011;7949;48.726;9.102;2022-10-18T00:03:33;6.93;;;4.03;;
15697;SDS011;7949;48.726;9.102;2022-10-18T00:06:01;14.67;;;4.80;;
15697;SDS011;7949;48.726;9.102;2022-10-18T00:08:28;6.53;;;4.77;;
15697;SDS011;7949;48.726;9.102;2022-10-18T00:10:55;8.77;;;4.40;;
15697;SDS011;7949;48.726;9.102;2022-10-18T00:13:22;12.03;;;4.70;;
15697;SDS011;7949;48.726;9.102;2022-10-18T00:15:52;9.53;;;4.50;;
15697;SDS011;7949;48.726;9.102;2022-10-18T00:18:21;13.30;;;4.70;;
15697;SDS011;7949;48.726;9.102;2022-10-18T00:20:58;13.57;;;4.40;;
15697;SDS011;7949;48.726;9.102;2022-10-18T00:23:26;10.27;;;4.50;;
15697;SDS011;7949;48.726;9.102;2022-10-18T00:26:00;9.23;;;4.90;;
15697;SDS011;7949;48.726;9.102;2022-10-18T00:28:29;7.07;;;4.27;;
15697;SDS011;7949;48.726;9.102;2022-10-18T00:31:04;7.17;;;4.37;;
15697;SDS011;7949;48.726;9.102;2022-10-18T00:33:35;7.17;;;4.30;;
15697;SDS011;7949;48.726;9.102;2022-10-18T00:36:02;6.33;;;4.07;;
15697;SDS011;7949;48.726;9.102;2022-10-18T00:38:29;9.03;;;4.53;;
15697;SDS011;7949;48.726;9.102;2022-10-18T00:40:56;10.63;;;5.03;;
15697;SDS011;7949;48.726;9.102;2022-10-18T00:43:23;7.90;;;4.70;;
15697;SDS011;7949;48.726;9.102;2022-10-18T00:45:50;10.63;;;5.17;;
15697;SDS011;7949;48.726;9.102;2022-10-18T00:48:18;9.23;;;4.73;;
15697;SDS011;7949;48.726;9.102;2022-10-18T00:50:46;9.20;;;4.20;;
15697;SDS011;7949;48.726;9.102;2022-10-18T00:53:15;14.63;;;4.67;;
15697;SDS011;7949;48.726;9.102;2022-10-18T00:55:44;6.63;;;4.07;;
15697;SDS011;7949;48.726;9.102;2022-10-18T00:58:13;12.23;;;4.20;;
15697;SDS011;7949;48.726;9.102;2022-10-18T01:00:42;11.37;;;3.80;;
15697;SDS011;7949;48.726;9.102;2022-10-18T01:03:08;5.93;;;3.87;;
15697;SDS011;7949;48.726;9.102;2022-10-18T01:05:40;7.47;;;3.43;;
15697;SDS011;7949;48.726;9.102;2022-10-18T01:08:20;5.97;;;3.30;;
15697;SDS011;7949;48.726;9.102;2022-10-18T01:10:59;5.43;;;3.30;;
15697;SDS011;7949;48.726;9.102;2022-10-18T01:13:40;3.17;;;2.63;;
15697;SDS011;7949;48.726;9.102;2022-10-18T01:16:15;8.80;;;3.13;;
15697;SDS011;7949;48.726;9.102;2022-10-18T01:18:47;6.37;;;2.77;;
15697;SDS011;7949;48.726;9.102;2022-10-18T01:21:26;6.10;;;2.57;;
15697;SDS011;7949;48.726;9.102;2022-10-18T01:24:10;6.43;;;2.60;;
15697;SDS011;7949;48.726;9.102;2022-10-18T01:27:27;5.27;;;2.00;;
15697;SDS011;7949;48.726;9.102;2022-10-18T01:30:20;8.13;;;2.73;;
15697;SDS011;7949;48.726;9.102;2022-10-18T01:32:57;6.77;;;2.37;;
15697;SDS011;7949;48.726;9.102;2022-10-18T01:35:29;4.97;;;2.60;;
15697;SDS011;7949;48.726;9.102;2022-10-18T01:37:59;7.40;;;2.43;;
15697;SDS011;7949;48.726;9.102;2022-10-18T01:40:31;5.87;;;2.63;;
15697;SDS011;7949;48.726;9.102;2022-10-18T01:43:00;8.97;;;2.90;;
15697;SDS011;7949;48.726;9.102;2022-10-18T01:45:30;9.20;;;2.50;;
15697;SDS011;7949;48.726;9.102;2022-10-18T01:47:58;3.63;;;2.20;;
15697;SDS011;7949;48.726;9.102;2022-10-18T01:50:27;8.30;;;2.53;;
15697;SDS011;7949;48.726;9.102;2022-10-18T01:52:55;3.70;;;2.10;;
15697;SDS011;7949;48.726;9.102;2022-10-18T01:55:23;5.93;;;2.23;;
15697;SDS011;7949;48.726;9.102;2022-10-18T01:57:56;5.33;;;2.60;;
15697;SDS011;7949;48.726;9.102;2022-10-18T02:00:30;6.90;;;2.50;;
15697;SDS011;7949;48.726;9.102;2022-10-18T02:03:03;4.23;;;2.30;;
15697;SDS011;7949;48.726;9.102;2022-10-18T02:05:35;7.97;;;2.67;;
15697;SDS011;7949;48.726;9.102;2022-10-18T02:08:06;6.10;;;2.53;;
15697;SDS011;7949;48.726;9.102;2022-10-18T02:10:42;7.93;;;2.40;;
15697;SDS011;7949;48.726;9.102;2022-10-18T02:13:13;5.10;;;2.60;;
15697;SDS011;7949;48.726;9.102;2022-10-18T02:15:44;5.33;;;2.50;;
15697;SDS011;7949;48.726;9.102;2022-10-18T02:18:15;4.17;;;2.50;;
15697;SDS011;7949;48.726;9.102;2022-10-18T02:20:46;5.10;;;2.40;;
15697;SDS011;7949;48.726;9.102;2022-10-18T02:23:14;6.50;;;2.70;;
15697;SDS011;7949;48.726;9.102;2022-10-18T02:25:45;5.73;;;2.63;;
15697;SDS011;7949;48.726;9.102;2022-10-18T02:28:13;11.90;;;2.33;;
15697;SDS011;7949;48.726;9.102;2022-10-18T02:30:43;6.90;;;2.43;;
15697;SDS011;7949;48.726;9.102;2022-10-18T02:33:16;5.73;;;2.47;;
15697;SDS011;7949;48.726;9.102;2022-10-18T02:35:48;7.77;;;2.70;;
15697;SDS011;7949;48.726;9.102;2022-10-18T02:38:18;5.47;;;2.53;;
15697;SDS011;7949;48.726;9.102;2022-10-18T02:40:48;5.43;;;2.27;;
15697;SDS011;7949;48.726;9.102;2022-10-18T02:43:16;5.20;;;2.67;;
15697;SDS011;7949;48.726;9.102;2022-10-18T02:45:43;5.83;;;2.70;;
15697;SDS011;7949;48.726;9.102;2022-10-18T02:48:11;7.50;;;2.63;;
15697;SDS011;7949;48.726;9.102;2022-10-18T02:50:38;10.63;;;3.00;;
15697;SDS011;7949;48.726;9.102;2022-10-18T02:53:05;3.57;;;2.70;;
15697;SDS011;7949;48.726;9.102;2022-10-18T02:55:32;6.10;;;2.73;;
15697;SDS011;7949;48.726;9.102;2022-10-18T02:57:59;6.93;;;3.20;;
15697;SDS011;7949;48.726;9.102;2022-10-18T03:00:26;8.00;;;2.77;;
15697;SDS011;7949;48.726;9.102;2022-10-18T03:02:52;5.03;;;2.30;;
15697;SDS011;7949;48.726;9.102;2022-10-18T03:05:21;7.67;;;2.57;;
15697;SDS011;7949;48.726;9.102;2022-10-18T03:07:48;4.47;;;2.40;;
15697;SDS011;7949;48.726;9.102;2022-10-18T03:10:14;10.00;;;2.50;;
15697;SDS011;7949;48.726;9.102;2022-10-18T03:12:41;7.43;;;2.10;;
15697;SDS011;7949;48.726;9.102;2022-10-18T03:15:09;6.77;;;3.07;;
15697;SDS011;7949;48.726;9.102;2022-10-18T03:17:36;9.10;;;2.53;;
15697;SDS011;7949;48.726;9.102;2022-10-18T03:20:03;7.37;;;2.60;;
15697;SDS011;7949;48.726;9.102;2022-10-18T03:22:31;4.43;;;2.80;;
15697;SDS011;7949;48.726;9.102;2022-10-18T03:24:58;4.37;;;2.60;;
15697;SDS011;7949;48.726;9.102;2022-10-18T03:27:25;5.77;;;2.57;;
15697;SDS011;7949;48.726;9.102;2022-10-18T03:29:52;5.27;;;2.27;;
15697;SDS011;7949;48.726;9.102;2022-10-18T03:32:19;6.03;;;2.70;;
15697;SDS011;7949;48.726;9.102;2022-10-18T03:34:46;6.40;;;2.60;;
15697;SDS011;7949;48.726;9.102;2022-10-18T03:37:12;5.90;;;2.43;;
15697;SDS011;7949;48.726;9.102;2022-10-18T03:39:41;6.77;;;2.73;;
15697;SDS011;7949;48.726;9.102;2022-10-18T03:42:08;5.77;;;2.37;;
15697;SDS011;7949;48.726;9.102;2022-10-18T03:44:34;3.17;;;2.23;;
15697;SDS011;7949;48.726;9.102;2022-10-18T03:47:01;3.13;;;2.20;;
15697;SDS011;7949;48.726;9.102;2022-10-18T03:49:28;7.10;;;2.73;;
15697;SDS011;7949;48.726;9.102;2022-10-18T03:51:55;7.97;;;2.80;;
15697;SDS011;7949;48.726;9.102;2022-10-18T03:54:22;5.57;;;2.40;;
15697;SDS011;7949;48.726;9.102;2022-10-18T03:56:50;4.00;;;2.40;;
15697;SDS011;7949;48.726;9.102;2022-10-18T03:59:17;6.80;;;2.60;;
15697;SDS011;7949;48.726;9.102;2022-10-18T04:01:44;5.23;;;2.20;;
15697;SDS011;7949;48.726;9.102;2022-10-18T04:04:10;12.67;;;3.07;;
15697;SDS011;7949;48.726;9.102;2022-10-18T04:06:37;5.90;;;2.60;;
15697;SDS011;7949;48.726;9.102;2022-10-18T04:09:04;2.77;;;2.10;;
15697;SDS011;7949;48.726;9.102;2022-10-18T04:11:31;7.37;;;2.23;;
15697;SDS011;7949;48.726;9.102;2022-10-18T04:13:59;3.07;;;2.70;;
15697;SDS011;7949;48.726;9.102;2022-10-18T04:16:26;5.07;;;2.37;;
15697;SDS011;7949;48.726;9.102;2022-10-18T04:18:52;8.13;;;2.57;;
15697;SDS011;7949;48.726;9.102;2022-10-18T04:21:19;9.37;;;2.47;;
15697;SDS011;7949;48.726;9.102;2022-10-18T04:23:46;12.23;;;2.33;;
15697;SDS011;7949;48.726;9.102;2022-10-18T04:26:13;6.83;;;2.90;;
15697;SDS011;7949;48.726;9.102;2022-10-18T04:28:44;3.97;;;2.47;;
15697;SDS011;7949;48.726;9.102;2022-10-18T04:31:12;7.43;;;2.70;;
15697;SDS011;7949;48.726;9.102;2022-10-18T04:33:39;5.70;;;2.63;;
15697;SDS011;7949;48.726;9.102;2022-10-18T04:36:06;5.60;;;2.80;;
15697;SDS011;7949;48.726;9.102;2022-10-18T04:38:32;9.50;;;2.60;;
15697;SDS011;7949;48.726;9.102;2022-10-18T04:40:59;9.07;;;2.90;;
15697;SDS011;7949;48.726;9.102;2022-10-18T04:43:26;8.53;;;3.10;;
15697;SDS011;7949;48.726;9.102;2022-10-18T04:45:53;6.73;;;2.60;;
15697;SDS011;7949;48.726;9.102;2022-10-18T04:48:21;6.90;;;2.60;;
15697;SDS011;7949;48.726;9.102;2022-10-18T04:50:48;5.67;;;3.10;;
15697;SDS011;7949;48.726;9.102;2022-10-18T04:53:16;5.53;;;2.40;;
15697;SDS011;7949;48.726;9.102;2022-10-18T04:55:43;7.37;;;2.50;;
15697;SDS011;7949;48.726;9.102;2022-10-18T04:58:11;4.93;;;2.43;;
15697;SDS011;7949;48.726;9.102;2022-10-18T05:00:38;6.20;;;2.80;;
15697;SDS011;7949;48.726;9.102;2022-10-18T05:03:04;5.80;;;2.97;;
15697;SDS011;7949;48.726;9.102;2022-10-18T05:05:33;4.67;;;2.70;;
15697;SDS011;7949;48.726;9.102;2022-10-18T05:08:00;6.03;;;2.70;;
15697;SDS011;7949;48.726;9.102;2022-10-18T05:10:27;5.93;;;2.93;;
15697;SDS011;7949;48.726;9.102;2022-10-18T05:12:53;8.83;;;2.73;;
15697;SDS011;7949;48.726;9.102;2022-10-18T05:15:20;4.27;;;2.37;;
15697;SDS011;7949;48.726;9.102;2022-10-18T05:17:47;7.73;;;2.77;;
15697;SDS011;7949;48.726;9.102;2022-10-18T05:20:14;8.20;;;2.87;;
15697;SDS011;7949;48.726;9.102;2022-10-18T05:22:42;6.37;;;2.97;;
15697;SDS011;7949;48.726;9.102;2022-10-18T05:25:09;9.87;;;2.43;;
15697;SDS011;7949;48.726;9.102;2022-10-18T05:27:36;2.87;;;2.30;;
15697;SDS011;7949;48.726;9.102;2022-10-18T05:30:03;6.80;;;2.70;;
15697;SDS011;7949;48.726;9.102;2022-10-18T05:32:30;5.67;;;2.50;;
15697;SDS011;7949;48.726;9.102;2022-10-18T05:34:57;7.90;;;2.80;;
15697;SDS011;7949;48.726;9.102;2022-10-18T05:37:24;5.80;;;2.67;;
15697;SDS011;7949;48.726;9.102;2022-10-18T05:39:52;7.70;;;2.63;;
15697;SDS011;7949;48.726;9.102;2022-10-18T05:42:19;9.93;;;3.20;;
15697;SDS011;7949;48.726;9.102;2022-10-18T05:44:46;3.63;;;2.43;;
15697;SDS011;7949;48.726;9.102;2022-10-18T05:47:13;7.27;;;2.87;;
15697;SDS011;7949;48.726;9.102;2022-10-18T05:49:39;6.80;;;2.30;;
15697;SDS011;7949;48.726;9.102;2022-10-18T05:52:06;12.70;;;4.10;;
15697;SDS011;7949;48.726;9.102;2022-10-18T05:54:33;6.50;;;3.30;;
15697;SDS011;7949;48.726;9.102;2022-10-18T05:57:01;7.13;;;3.03;;
15697;SDS011;7949;48.726;9.102;2022-10-18T05:59:28;4.30;;;2.73;;
15697;SDS011;7949;48.726;9.102;2022-10-18T06:01:55;11.00;;;2.93;;
15697;SDS011;7949;48.726;9.102;2022-10-18T06:04:22;5.33;;;3.20;;
15697;SDS011;7949;48.726;9.102;2022-10-18T06:06:49;8.30;;;2.50;;
15697;SDS011;7949;48.726;9.102;2022-10-18T06:09:18;6.07;;;2.90;;
15697;SDS011;7949;48.726;9.102;2022-10-18T06:11:44;7.77;;;2.73;;
15697;SDS011;7949;48.726;9.102;2022-10-18T06:14:13;8.60;;;2.63;;
15697;SDS011;7949;48.726;9.102;2022-10-18T06:16:40;3.87;;;2.70;;
15697;SDS011;7949;48.726;9.102;2022-10-18T06:19:06;12.23;;;3.20;;
15697;SDS011;7949;48.726;9.102;2022-10-18T06:21:34;5.90;;;2.53;;
15697;SDS011;7949;48.726;9.102;2022-10-18T06:24:01;5.10;;;2.53;;
15697;SDS011;7949;48.726;9.102;2022-10-18T06:26:27;4.10;;;2.30;;
15697;SDS011;7949;48.726;9.102;2022-10-18T06:28:54;7.43;;;3.10;;
15697;SDS011;7949;48.726;9.102;2022-10-18T06:31:22;6.70;;;2.70;;
15697;SDS011;7949;48.726;9.102;2022-10-18T06:33:49;6.13;;;2.90;;
15697;SDS011;7949;48.726;9.102;2022-10-18T06:36:17;5.97;;;2.33;;
15697;SDS011;7949;48.726;9.102;2022-10-18T06:38:46;11.63;;;2.50;;
15697;SDS011;7949;48.726;9.102;2022-10-18T06:41:13;8.33;;;3.07;;
15697;SDS011;7949;48.726;9.102;2022-10-18T06:43:40;4.40;;;2.77;;
15697;SDS011;7949;48.726;9.102;2022-10-18T06:46:07;4.23;;;2.77;;
15697;SDS011;7949;48.726;9.102;2022-10-18T06:48:37;5.93;;;2.47;;
15697;SDS011;7949;48.726;9.102;2022-10-18T06:51:04;7.20;;;2.93;;
15697;SDS011;7949;48.726;9.102;2022-10-18T06:53:33;5.20;;;2.80;;
15697;SDS011;7949;48.726;9.102;2022-10-18T06:56:02;5.60;;;2.80;;
15697;SDS011;7949;48.726;9.102;2022-10-18T06:58:30;5.67;;;2.77;;
15697;SDS011;7949;48.726;9.102;2022-10-18T07:01:03;4.73;;;3.10;;
15697;SDS011;7949;48.726;9.102;2022-10-18T07:03:31;12.70;;;3.00;;
15697;SDS011;7949;48.726;9.102;2022-10-18T07:06:00;5.53;;;2.50;;
15697;SDS011;7949;48.726;9.102;2022-10-18T07:08:28;9.97;;;2.93;;
15697;SDS011;7949;48.726;9.102;2022-10-18T07:10:55;4.87;;;2.67;;
15697;SDS011;7949;48.726;9.102;2022-10-18T07:13:22;6.07;;;3.00;;
15697;SDS011;7949;48.726;9.102;2022-10-18T07:15:58;7.10;;;2.90;;
15697;SDS011;7949;48.726;9.102;2022-10-18T07:18:29;7.73;;;3.07;;
15697;SDS011;7949;48.726;9.102;2022-10-18T07:21:00;5.87;;;2.80;;
15697;SDS011;7949;48.726;9.102;2022-10-18T07:23:28;4.97;;;3.03;;
15697;SDS011;7949;48.726;9.102;2022-10-18T07:25:56;8.53;;;3.20;;
15697;SDS011;7949;48.726;9.102;2022-10-18T07:28:23;6.63;;;3.30;;
15697;SDS011;7949;48.726;9.102;2022-10-18T07:30:50;7.80;;;2.97;;
15697;SDS011;7949;48.726;9.102;2022-10-18T07:33:17;3.20;;;2.57;;
15697;SDS011;7949;48.726;9.102;2022-10-18T07:35:45;8.50;;;2.97;;
15697;SDS011;7949;48.726;9.102;2022-10-18T07:38:13;5.30;;;3.07;;
15697;SDS011;7949;48.726;9.102;2022-10-18T07:40:40;4.50;;;2.40;;
15697;SDS011;7949;48.726;9.102;2022-10-18T07:43:07;11.43;;;3.10;;
15697;SDS011;7949;48.726;9.102;2022-10-18T07:45:33;8.00;;;3.17;;
15697;SDS011;7949;48.726;9.102;2022-10-18T07:48:00;7.13;;;2.90;;
15697;SDS011;7949;48.726;9.102;2022-10-18T07:50:27;5.50;;;2.73;;
15697;SDS011;7949;48.726;9.102;2022-10-18T07:52:54;8.07;;;2.83;;
15697;SDS011;7949;48.726;9.102;2022-10-18T07:55:22;4.53;;;2.57;;
15697;SDS011;7949;48.726;9.102;2022-10-18T07:57:49;5.47;;;2.73;;
15697;SDS011;7949;48.726;9.102;2022-10-18T08:00:16;4.37;;;2.87;;
15697;SDS011;7949;48.726;9.102;2022-10-18T08:02:43;7.83;;;2.60;;
15697;SDS011;7949;48.726;9.102;2022-10-18T08:05:10;8.93;;;2.47;;
15697;SDS011;7949;48.726;9.102;2022-10-18T08:07:37;5.50;;;2.27;;
15697;SDS011;7949;48.726;9.102;2022-10-18T08:10:04;5.27;;;2.83;;
15697;SDS011;7949;48.726;9.102;2022-10-18T08:12:32;5.67;;;2.53;;
15697;SDS011;7949;48.726;9.102;2022-10-18T08:14:59;12.23;;;2.87;;
15697;SDS011;7949;48.726;9.102;2022-10-18T08:17:26;5.10;;;2.63;;
15697;SDS011;7949;48.726;9.102;2022-10-18T08:19:53;5.63;;;2.60;;
15697;SDS011;7949;48.726;9.102;2022-10-18T08:22:20;4.70;;;3.00;;
15697;SDS011;7949;48.726;9.102;2022-10-18T08:24:48;4.43;;;2.63;;
15697;SDS011;7949;48.726;9.102;2022-10-18T08:27:15;9.77;;;2.77;;
15697;SDS011;7949;48.726;9.102;2022-10-18T08:29:43;4.93;;;2.90;;
15697;SDS011;7949;48.726;9.102;2022-10-18T08:32:10;8.50;;;2.97;;
15697;SDS011;7949;48.726;9.102;2022-10-18T08:34:38;9.17;;;2.77;;
15697;SDS011;7949;48.726;9.102;2022-10-18T08:37:05;5.30;;;2.67;;
15697;SDS011;7949;48.726;9.102;2022-10-18T08:39:32;9.67;;;2.87;;
15697;SDS011;7949;48.726;9.102;2022-10-18T08:42:03;7.47;;;2.60;;
15697;SDS011;7949;48.726;9.102;2022-10-18T08:44:53;5.90;;;3.27;;
15697;SDS011;7949;48.726;9.102;2022-10-18T08:47:21;9.23;;;3.20;;
15697;SDS011;7949;48.726;9.102;2022-10-18T08:49:55;9.87;;;3.70;;
15697;SDS011;7949;48.726;9.102;2022-10-18T08:52:27;5.87;;;3.13;;
15697;SDS011;7949;48.726;9.102;2022-10-18T08:54:59;4.77;;;3.10;;
15697;SDS011;7949;48.726;9.102;2022-10-18T08:57:28;6.53;;;2.87;;
15697;SDS011;7949;48.726;9.102;2022-10-18T08:59:57;10.57;;;2.77;;
15697;SDS011;7949;48.726;9.102;2022-10-18T09:02:34;10.03;;;2.70;;
15697;SDS011;7949;48.726;9.102;2022-10-18T09:05:11;6.67;;;2.83;;
15697;SDS011;7949;48.726;9.102;2022-10-18T09:07:51;10.43;;;3.10;;
15697;SDS011;7949;48.726;9.102;2022-10-18T09:10:40;6.77;;;3.23;;
15697;SDS011;7949;48.726;9.102;2022-10-18T09:13:16;7.33;;;2.90;;
15697;SDS011;7949;48.726;9.102;2022-10-18T09:15:57;6.63;;;3.20;;
15697;SDS011;7949;48.726;9.102;2022-10-18T09:18:31;6.17;;;2.83;;
15697;SDS011;7949;48.726;9.102;2022-10-18T09:21:10;7.73;;;2.80;;
15697;SDS011;7949;48.726;9.102;2022-10-18T09:23:45;5.37;;;3.03;;
15697;SDS011;7949;48.726;9.102;2022-10-18T09:26:14;7.10;;;2.60;;
15697;SDS011;7949;48.726;9.102;2022-10-18T09:28:46;6.53;;;2.60;;
15697;SDS011;7949;48.726;9.102;2022-10-18T09:31:24;5.13;;;2.70;;
15697;SDS011;7949;48.726;9.102;2022-10-18T09:33:57;5.10;;;2.57;;
15697;SDS011;7949;48.726;9.102;2022-10-18T09:36:27;7.13;;;2.40;;
15697;SDS011;7949;48.726;9.102;2022-10-18T09:39:02;6.07;;;2.50;;
15697;SDS011;7949;48.726;9.102;2022-10-18T09:41:36;5.68;;;2.35;;
15697;SDS011;7949;48.726;9.102;2022-10-18T09:44:09;5.82;;;2.67;;
15697;SDS011;7949;48.726;9.102;2022-10-18T09:46:42;6.40;;;2.83;;
15697;SDS011;7949;48.726;9.102;2022-10-18T09:49:14;5.68;;;2.63;;
15697;SDS011;7949;48.726;9.102;2022-10-18T09:51:45;8.25;;;3.30;;
15697;SDS011;7949;48.726;9.102;2022-10-18T09:54:19;3.67;;;2.40;;
15697;SDS011;7949;48.726;9.102;2022-10-18T09:56:51;8.00;;;2.80;;
15697;SDS011;7949;48.726;9.102;2022-10-18T09:59:30;6.00;;;2.70;;
15697;SDS011;7949;48.726;9.102;2022-10-18T10:02:02;12.40;;;2.72;;
15697;SDS011;7949;48.726;9.102;2022-10-18T10:04:30;6.90;;;2.53;;
15697;SDS011;7949;48.726;9.102;2022-10-18T10:06:58;6.63;;;2.65;;
15697;SDS011;7949;48.726;9.102;2022-10-18T10:09:27;4.43;;;2.30;;
15697;SDS011;7949;48.726;9.102;2022-10-18T10:11:56;6.90;;;3.10;;
15697;SDS011;7949;48.726;9.102;2022-10-18T10:14:24;6.25;;;2.85;;
15697;SDS011;7949;48.726;9.102;2022-10-18T10:16:52;6.23;;;3.10;;
15697;SDS011;7949;48.726;9.102;2022-10-18T10:19:26;7.38;;;2.65;;
15697;SDS011;7949;48.726;9.102;2022-10-18T10:22:00;7.20;;;2.97;;
15697;SDS011;7949;48.726;9.102;2022-10-18T10:24:34;5.38;;;2.72;;
15697;SDS011;7949;48.726;9.102;2022-10-18T10:27:12;7.88;;;2.70;;
15697;SDS011;7949;48.726;9.102;2022-10-18T10:29:47;7.47;;;3.00;;
15697;SDS011;7949;48.726;9.102;2022-10-18T10:32:21;7.55;;;2.78;;
15697;SDS011;7949;48.726;9.102;2022-10-18T10:34:55;5.18;;;2.70;;
15697;SDS011;7949;48.726;9.102;2022-10-18T10:37:23;6.68;;;2.50;;
15697;SDS011;7949;48.726;9.102;2022-10-18T10:40:12;4.35;;;2.22;;
15697;SDS011;7949;48.726;9.102;2022-10-18T10:45:28;8.03;;;2.57;;
15697;SDS011;7949;48.726;9.102;2022-10-18T10:48:02;5.60;;;2.70;;
15697;SDS011;7949;48.726;9.102;2022-10-18T10:50:45;4.20;;;2.33;;
15697;SDS011;7949;48.726;9.102;2022-10-18T10:53:31;8.03;;;2.63;;
15697;SDS011;7949;48.726;9.102;2022-10-18T10:56:15;7.13;;;2.90;;
15697;SDS011;7949;48.726;9.102;2022-10-18T10:58:45;6.20;;;2.60;;
15697;SDS011;7949;48.726;9.102;2022-10-18T11:01:17;6.93;;;2.47;;
15697;SDS011;7949;48.726;9.102;2022-10-18T11:03:47;4.67;;;2.20;;
15697;SDS011;7949;48.726;9.102;2022-10-18T11:06:29;7.27;;;3.30;;
15697;SDS011;7949;48.726;9.102;2022-10-18T11:09:02;3.83;;;2.50;;
15697;SDS011;7949;48.726;9.102;2022-10-18T11:11:35;9.50;;;2.80;;
15697;SDS011;7949;48.726;9.102;2022-10-18T11:14:08;9.37;;;2.90;;
15697;SDS011;7949;48.726;9.102;2022-10-18T11:16:48;3.67;;;2.53;;
15697;SDS011;7949;48.726;9.102;2022-10-18T11:19:26;8.43;;;2.87;;
15697;SDS011;7949;48.726;9.102;2022-10-18T11:22:02;4.97;;;2.60;;
15697;SDS011;7949;48.726;9.102;2022-10-18T11:24:32;5.43;;;2.60;;
15697;SDS011;7949;48.726;9.102;2022-10-18T11:27:02;5.17;;;2.33;;
15697;SDS011;7949;48.726;9.102;2022-10-18T11:29:41;5.50;;;2.40;;
15697;SDS011;7949;48.726;9.102;2022-10-18T11:32:15;8.82;;;2.55;;
15697;SDS011;7949;48.726;9.102;2022-10-18T11:34:49;5.18;;;2.45;;
15697;SDS011;7949;48.726;9.102;2022-10-18T11:40:31;6.30;;;2.20;;
15697;SDS011;7949;48.726;9.102;2022-10-18T11:43:07;8.73;;;2.45;;
15697;SDS011;7949;48.726;9.102;2022-10-18T11:45:45;3.63;;;1.80;;
15697;SDS011;7949;48.726;9.102;2022-10-18T11:48:23;8.63;;;2.22;;
15697;SDS011;7949;48.726;9.102;2022-10-18T11:51:09;7.05;;;2.10;;
15697;SDS011;7949;48.726;9.102;2022-10-18T11:53:57;7.15;;;2.50;;
15697;SDS011;7949;48.726;9.102;2022-10-18T11:56:36;11.85;;;3.33;;
15697;SDS011;7949;48.726;9.102;2022-10-18T11:59:16;10.37;;;3.10;;
15697;SDS011;7949;48.726;9.102;2022-10-18T12:01:56;5.97;;;2.53;;
15697;SDS011;7949;48.726;9.102;2022-10-18T12:04:32;4.18;;;2.63;;
15697;SDS011;7949;48.726;9.102;2022-10-18T12:07:03;7.85;;;2.85;;
15697;SDS011;7949;48.726;9.102;2022-10-18T12:09:33;5.20;;;2.60;;
15697;SDS011;7949;48.726;9.102;2022-10-18T12:12:08;10.18;;;2.63;;
15697;SDS011;7949;48.726;9.102;2022-10-18T12:14:41;4.82;;;2.70;;
15697;SDS011;7949;48.726;9.102;2022-10-18T12:17:15;4.47;;;1.65;;
15697;SDS011;7949;48.726;9.102;2022-10-18T12:19:47;3.25;;;1.48;;
15697;SDS011;7949;48.726;9.102;2022-10-18T12:22:17;6.75;;;1.63;;
15697;SDS011;7949;48.726;9.102;2022-10-18T12:24:49;1.88;;;1.40;;
15697;SDS011;7949;48.726;9.102;2022-10-18T12:27:16;2.65;;;1.23;;
15697;SDS011;7949;48.726;9.102;2022-10-18T12:29:46;2.95;;;1.60;;
15697;SDS011;7949;48.726;9.102;2022-10-18T12:32:17;4.10;;;1.27;;
15697;SDS011;7949;48.726;9.102;2022-10-18T12:34:48;3.55;;;1.02;;
15697;SDS011;7949;48.726;9.102;2022-10-18T12:37:31;4.07;;;0.98;;
15697;SDS011;7949;48.726;9.102;2022-10-18T12:40:11;3.90;;;1.35;;
15697;SDS011;7949;48.726;9.102;2022-10-18T12:42:40;4.55;;;1.13;;
15697;SDS011;7949;48.726;9.102;2022-10-18T12:45:17;2.55;;;1.02;;
15697;SDS011;7949;48.726;9.102;2022-10-18T12:47:50;3.38;;;1.17;;
15697;SDS011;7949;48.726;9.102;2022-10-18T12:50:27;1.40;;;1.10;;
15697;SDS011;7949;48.726;9.102;2022-10-18T12:53:11;2.80;;;1.60;;
15697;SDS011;7949;48.726;9.102;2022-10-18T12:55:44;7.00;;;1.50;;
15697;SDS011;7949;48.726;9.102;2022-10-18T12:58:22;3.92;;;1.20;;
15697;SDS011;7949;48.726;9.102;2022-10-18T13:00:52;2.72;;;1.58;;
15697;SDS011;7949;48.726;9.102;2022-10-18T13:03:36;2.08;;;1.25;;
15697;SDS011;7949;48.726;9.102;2022-10-18T13:06:24;3.17;;;1.33;;
15697;SDS011;7949;48.726;9.102;2022-10-18T13:09:35;2.95;;;1.48;;
15697;SDS011;7949;48.726;9.102;2022-10-18T13:15:20;2.97;;;1.45;;
15697;SDS011;7949;48.726;9.102;2022-10-18T13:18:02;2.58;;;1.30;;
15697;SDS011;7949;48.726;9.102;2022-10-18T13:20:36;3.15;;;1.60;;
15697;SDS011;7949;48.726;9.102;2022-10-18T13:23:11;2.53;;;1.50;;
15697;SDS011;7949;48.726;9.102;2022-10-18T13:25:58;2.88;;;1.42;;
15697;SDS011;7949;48.726;9.102;2022-10-18T13:28:36;3.60;;;1.70;;
15697;SDS011;7949;48.726;9.102;2022-10-18T13:31:14;4.30;;;1.77;;
15697;SDS011;7949;48.726;9.102;2022-10-18T13:33:47;5.10;;;1.60;;
15697;SDS011;7949;48.726;9.102;2022-10-18T13:36:21;3.90;;;1.77;;
15697;SDS011;7949;48.726;9.102;2022-10-18T13:39:00;3.03;;;1.25;;
15697;SDS011;7949;48.726;9.102;2022-10-18T13:41:30;6.10;;;1.55;;
15697;SDS011;7949;48.726;9.102;2022-10-18T13:50:15;3.42;;;1.50;;
15697;SDS011;7949;48.726;9.102;2022-10-18T13:59:09;5.20;;;1.60;;
15697;SDS011;7949;48.726;9.102;2022-10-18T14:01:48;3.13;;;1.30;;
15697;SDS011;7949;48.726;9.102;2022-10-18T14:04:30;2.17;;;1.30;;
15697;SDS011;7949;48.726;9.102;2022-10-18T14:07:14;3.80;;;1.60;;
15697;SDS011;7949;48.726;9.102;2022-10-18T14:09:43;2.07;;;1.33;;
15697;SDS011;7949;48.726;9.102;2022-10-18T14:12:15;4.83;;;1.70;;
15697;SDS011;7949;48.726;9.102;2022-10-18T14:14:50;4.77;;;1.40;;
15697;SDS011;7949;48.726;9.102;2022-10-18T14:17:24;2.57;;;1.20;;
15697;SDS011;7949;48.726;9.102;2022-10-18T14:19:57;1.90;;;1.37;;
15697;SDS011;7949;48.726;9.102;2022-10-18T14:22:30;5.37;;;1.50;;
15697;SDS011;7949;48.726;9.102;2022-10-18T14:25:01;5.20;;;1.77;;
15697;SDS011;7949;48.726;9.102;2022-10-18T14:27:28;3.97;;;1.40;;
15697;SDS011;7949;48.726;9.102;2022-10-18T14:30:07;2.43;;;1.53;;
15697;SDS011;7949;48.726;9.102;2022-10-18T14:32:35;6.47;;;1.70;;
15697;SDS011;7949;48.726;9.102;2022-10-18T14:35:02;1.60;;;1.30;;
15697;SDS011;7949;48.726;9.102;2022-10-18T14:37:32;3.00;;;1.30;;
15697;SDS011;7949;48.726;9.102;2022-10-18T14:40:00;5.00;;;1.50;;
15697;SDS011;7949;48.726;9.102;2022-10-18T14:42:28;2.20;;;1.30;;
15697;SDS011;7949;48.726;9.102;2022-10-18T14:44:55;2.33;;;1.40;;
15697;SDS011;7949;48.726;9.102;2022-10-18T14:47:23;3.93;;;1.20;;
15697;SDS011;7949;48.726;9.102;2022-10-18T14:49:51;2.70;;;1.50;;
15697;SDS011;7949;48.726;9.102;2022-10-18T14:52:25;7.93;;;1.60;;
15697;SDS011;7949;48.726;9.102;2022-10-18T14:55:00;3.50;;;1.53;;
15697;SDS011;7949;48.726;9.102;2022-10-18T14:57:28;2.83;;;1.70;;
15697;SDS011;7949;48.726;9.102;2022-10-18T14:59:57;2.83;;;1.90;;
15697;SDS011;7949;48.726;9.102;2022-10-18T15:02:27;3.63;;;1.70;;
15697;SDS011;7949;48.726;9.102;2022-10-18T15:04:56;3.35;;;1.60;;
15697;SDS011;7949;48.726;9.102;2022-10-18T15:07:24;2.47;;;1.55;;
15697;SDS011;7949;48.726;9.102;2022-10-18T15:09:54;7.50;;;1.87;;
15697;SDS011;7949;48.726;9.102;2022-10-18T15:12:23;5.93;;;1.90;;
15697;SDS011;7949;48.726;9.102;2022-10-18T15:14:51;6.47;;;2.10;;
15697;SDS011;7949;48.726;9.102;2022-10-18T15:17:20;8.63;;;2.00;;
15697;SDS011;7949;48.726;9.102;2022-10-18T15:19:54;7.30;;;2.13;;
15697;SDS011;7949;48.726;9.102;2022-10-18T15:22:23;8.33;;;2.30;;
15697;SDS011;7949;48.726;9.102;2022-10-18T15:27:43;9.37;;;2.50;;
15697;SDS011;7949;48.726;9.102;2022-10-18T15:30:14;5.27;;;2.00;;
15697;SDS011;7949;48.726;9.102;2022-10-18T15:32:47;7.17;;;2.23;;
15697;SDS011;7949;48.726;9.102;2022-10-18T15:35:17;2.97;;;2.10;;
15697;SDS011;7949;48.726;9.102;2022-10-18T15:37:46;7.80;;;2.60;;
15697;SDS011;7949;48.726;9.102;2022-10-18T15:40:34;5.37;;;2.33;;
15697;SDS011;7949;48.726;9.102;2022-10-18T15:43:05;6.30;;;2.60;;
15697;SDS011;7949;48.726;9.102;2022-10-18T15:45:47;5.57;;;3.23;;
15697;SDS011;7949;48.726;9.102;2022-10-18T15:48:24;5.17;;;2.90;;